createdAt,value
2019-01-17T00:00:07.941Z,4.70
2019-01-17T00:01:07.996Z,5.20
2019-01-17T00:02:08.041Z,4.50
2019-01-17T00:03:08.077Z,4.30
2019-01-17T00:04:08.122Z,4.50
2019-01-17T00:05:08.217Z,4.60
2019-01-17T00:06:08.224Z,5.40
2019-01-17T00:07:08.271Z,5.60
2019-01-17T00:08:08.324Z,6.00
2019-01-17T00:09:08.348Z,5.70
2019-01-17T00:10:08.432Z,5.60
2019-01-17T00:11:08.508Z,5.20
2019-01-17T00:12:08.484Z,5.50
2019-01-17T00:13:08.554Z,5.60
2019-01-17T00:14:08.586Z,5.30
2019-01-17T00:15:08.624Z,5.10
2019-01-17T00:16:08.678Z,5.30
2019-01-17T00:17:08.719Z,4.90
2019-01-17T00:18:08.772Z,5.20
2019-01-17T00:19:08.802Z,5.50
2019-01-17T00:20:08.858Z,5.60
2019-01-17T00:21:08.925Z,6.40
2019-01-17T00:22:08.938Z,5.60
2019-01-17T00:23:09.002Z,6.00
2019-01-17T00:24:09.080Z,4.30
2019-01-17T00:25:09.095Z,4.70
2019-01-17T00:26:09.147Z,4.50
2019-01-17T00:27:09.186Z,4.60
2019-01-17T00:28:09.239Z,4.50
2019-01-17T00:29:09.265Z,4.30
2019-01-17T00:30:09.330Z,5.10
2019-01-17T00:31:09.357Z,4.80
2019-01-17T00:32:09.429Z,4.80
2019-01-17T00:33:09.460Z,4.90
2019-01-17T00:34:09.541Z,5.10
2019-01-17T00:35:09.534Z,5.40
2019-01-17T00:36:09.615Z,5.50
2019-01-17T00:37:09.650Z,5.40
2019-01-17T00:38:09.722Z,4.60
2019-01-17T00:39:09.731Z,5.20
2019-01-17T00:40:09.783Z,4.40
2019-01-17T00:41:09.836Z,4.60
2019-01-17T00:42:09.856Z,4.70
2019-01-17T00:43:09.910Z,4.70
2019-01-17T00:44:09.970Z,5.20
2019-01-17T00:45:10.009Z,4.70
2019-01-17T00:46:10.067Z,4.20
2019-01-17T00:47:10.102Z,4.00
2019-01-17T00:48:10.148Z,4.10
2019-01-17T00:49:10.190Z,4.30
2019-01-17T00:50:10.253Z,4.20
2019-01-17T00:51:10.320Z,4.30
2019-01-17T00:52:10.329Z,4.30
2019-01-17T00:53:10.461Z,3.70
2019-01-17T00:54:10.421Z,3.80
2019-01-17T00:55:10.478Z,3.60
2019-01-17T00:56:10.519Z,3.00
2019-01-17T00:57:10.576Z,3.70
2019-01-17T00:58:10.705Z,3.50
2019-01-17T00:59:10.651Z,3.40
2019-01-17T01:00:10.714Z,3.50
2019-01-17T01:01:10.760Z,3.50
2019-01-17T01:02:10.794Z,3.20
2019-01-17T01:03:10.850Z,3.40
2019-01-17T01:04:10.899Z,3.10
2019-01-17T01:05:10.928Z,3.00
2019-01-17T01:06:10.966Z,3.50
2019-01-17T01:07:11.021Z,3.50
2019-01-17T01:08:11.050Z,3.30
2019-01-17T01:09:11.137Z,3.40
2019-01-17T01:10:11.171Z,3.40
2019-01-17T01:11:11.222Z,3.30
2019-01-17T01:12:11.234Z,3.30
2019-01-17T01:13:11.313Z,3.40
2019-01-17T01:14:11.346Z,3.50
2019-01-17T01:15:11.399Z,3.40
2019-01-17T01:16:11.455Z,3.10
2019-01-17T01:17:11.491Z,3.50
2019-01-17T01:18:11.578Z,3.40
2019-01-17T01:19:11.586Z,3.20
2019-01-17T01:20:11.644Z,3.50
2019-01-17T01:21:11.714Z,3.50
2019-01-17T01:22:11.738Z,3.10
2019-01-17T01:23:11.759Z,3.70
2019-01-17T01:24:15.445Z,3.30
2019-01-17T01:25:11.864Z,3.30
2019-01-17T01:26:11.907Z,3.50
2019-01-17T01:27:11.933Z,3.40
2019-01-17T01:28:12.016Z,3.60
2019-01-17T01:29:12.048Z,3.50
2019-01-17T01:30:12.093Z,3.60
2019-01-17T01:31:12.118Z,3.50
2019-01-17T01:32:12.179Z,3.60
2019-01-17T01:33:12.219Z,3.30
2019-01-17T01:34:12.256Z,3.70
2019-01-17T01:35:12.321Z,3.20
2019-01-17T01:36:12.396Z,3.50
2019-01-17T01:37:12.437Z,3.40
2019-01-17T01:38:12.466Z,3.50
2019-01-17T01:39:12.517Z,3.40
2019-01-17T01:40:12.558Z,3.30
2019-01-17T01:41:12.599Z,3.40
2019-01-17T01:42:12.645Z,3.20
2019-01-17T01:43:12.693Z,3.30
2019-01-17T01:44:12.740Z,3.40
2019-01-17T01:45:12.778Z,3.50
2019-01-17T01:46:12.816Z,3.60
2019-01-17T01:47:12.880Z,3.20
2019-01-17T01:48:12.925Z,3.40
2019-01-17T01:49:12.970Z,3.60
2019-01-17T01:50:13.016Z,3.40
2019-01-17T01:51:13.058Z,3.50
2019-01-17T01:52:13.107Z,3.60
2019-01-17T01:53:13.199Z,3.40
2019-01-17T01:54:13.203Z,3.30
2019-01-17T01:55:13.277Z,3.50
2019-01-17T01:56:13.282Z,3.80
2019-01-17T01:57:13.312Z,3.40
2019-01-17T01:58:13.418Z,3.60
2019-01-17T01:59:13.436Z,3.40
2019-01-17T02:00:13.491Z,3.70
2019-01-17T02:01:13.525Z,3.40
2019-01-17T02:02:13.569Z,3.40
2019-01-17T02:03:13.628Z,3.30
2019-01-17T02:04:13.661Z,3.00
2019-01-17T02:05:13.708Z,3.40
2019-01-17T02:06:13.752Z,3.60
2019-01-17T02:07:13.797Z,3.40
2019-01-17T02:08:13.851Z,3.40
2019-01-17T02:09:13.929Z,3.50
2019-01-17T02:10:13.949Z,3.40
2019-01-17T02:11:14.021Z,3.40
2019-01-17T02:12:14.033Z,3.50
2019-01-17T02:13:14.056Z,3.30
2019-01-17T02:14:14.119Z,3.60
2019-01-17T02:15:14.178Z,3.50
2019-01-17T02:16:14.255Z,3.60
2019-01-17T02:17:14.275Z,3.50
2019-01-17T02:18:14.354Z,3.40
2019-01-17T02:19:14.347Z,3.60
2019-01-17T02:20:14.407Z,3.50
2019-01-17T02:21:14.440Z,3.60
2019-01-17T02:22:14.532Z,3.60
2019-01-17T02:23:14.531Z,3.40
2019-01-17T02:24:14.584Z,3.50
2019-01-17T02:25:14.624Z,3.60
2019-01-17T02:26:14.715Z,3.90
2019-01-17T02:27:14.760Z,3.70
2019-01-17T02:28:14.788Z,3.60
2019-01-17T02:29:14.837Z,3.50
2019-01-17T02:30:14.874Z,3.40
2019-01-17T02:31:14.928Z,3.50
2019-01-17T02:32:15.007Z,3.70
2019-01-17T02:33:15.003Z,4.10
2019-01-17T02:34:15.052Z,3.60
2019-01-17T02:35:15.084Z,3.70
2019-01-17T02:36:15.154Z,3.70
2019-01-17T02:37:15.171Z,3.50
2019-01-17T02:38:15.214Z,3.70
2019-01-17T02:39:15.304Z,4.00
2019-01-17T02:40:15.331Z,4.00
2019-01-17T02:41:15.372Z,3.70
2019-01-17T02:42:15.424Z,4.00
2019-01-17T02:43:15.467Z,4.00
2019-01-17T02:44:15.515Z,3.80
2019-01-17T02:45:15.567Z,4.10
2019-01-17T02:46:15.611Z,4.10
2019-01-17T02:47:15.668Z,4.20
2019-01-17T02:48:15.691Z,4.10
2019-01-17T02:49:15.741Z,4.20
2019-01-17T02:50:15.782Z,4.30
2019-01-17T02:51:15.826Z,4.20
2019-01-17T02:52:15.863Z,4.50
2019-01-17T02:53:15.964Z,4.60
2019-01-17T02:54:15.983Z,4.40
2019-01-17T02:55:16.043Z,4.60
2019-01-17T02:56:16.141Z,4.50
2019-01-17T02:57:16.120Z,4.60
2019-01-17T02:58:16.164Z,4.70
2019-01-17T02:59:16.203Z,4.50
2019-01-17T03:00:16.259Z,4.30
2019-01-17T03:01:16.312Z,4.30
2019-01-17T03:02:16.352Z,4.10
2019-01-17T03:03:16.388Z,4.10
2019-01-17T03:04:16.428Z,4.20
2019-01-17T03:05:16.498Z,4.00
2019-01-17T03:06:16.543Z,3.90
2019-01-17T03:07:16.571Z,3.60
2019-01-17T03:08:16.642Z,3.60
2019-01-17T03:09:16.673Z,3.80
2019-01-17T03:10:16.766Z,4.00
2019-01-17T03:11:16.765Z,3.80
2019-01-17T03:12:16.809Z,4.10
2019-01-17T03:13:16.874Z,3.70
2019-01-17T03:14:16.913Z,4.10
2019-01-17T03:15:16.952Z,4.10
2019-01-17T03:16:17.008Z,4.20
2019-01-17T03:17:17.043Z,4.10
2019-01-17T03:18:17.079Z,4.00
2019-01-17T03:19:17.159Z,4.10
2019-01-17T03:20:17.208Z,4.10
2019-01-17T03:21:17.245Z,4.00
2019-01-17T03:22:17.269Z,4.10
2019-01-17T03:23:17.333Z,3.90
2019-01-17T03:24:17.392Z,3.90
2019-01-17T03:25:17.409Z,4.10
2019-01-17T03:26:17.619Z,4.40
2019-01-17T03:27:17.578Z,4.20
2019-01-17T03:28:17.563Z,4.60
2019-01-17T03:29:17.603Z,4.30
2019-01-17T03:30:17.740Z,4.30
2019-01-17T03:31:17.707Z,4.70
2019-01-17T03:32:17.745Z,4.90
2019-01-17T03:33:17.788Z,5.20
2019-01-17T03:34:17.878Z,6.30
2019-01-17T03:35:17.888Z,6.90
2019-01-17T03:36:17.924Z,7.40
2019-01-17T03:37:17.985Z,7.90
2019-01-17T03:38:18.037Z,8.70
2019-01-17T03:39:18.106Z,9.50
2019-01-17T03:40:18.108Z,9.70
2019-01-17T03:41:18.194Z,10.00
2019-01-17T03:42:18.237Z,10.00
2019-01-17T03:43:18.254Z,11.10
2019-01-17T03:44:18.294Z,12.50
2019-01-17T03:45:18.349Z,15.30
2019-01-17T03:46:18.377Z,16.90
2019-01-17T03:47:18.435Z,18.60
2019-01-17T03:48:18.490Z,17.60
2019-01-17T03:49:18.526Z,18.00
2019-01-17T03:50:18.564Z,16.80
2019-01-17T03:51:18.666Z,16.00
2019-01-17T03:52:18.667Z,15.80
2019-01-17T03:53:18.732Z,15.00
2019-01-17T03:54:18.759Z,14.90
2019-01-17T03:55:18.809Z,14.10
2019-01-17T03:56:21.899Z,14.70
2019-01-17T03:57:19.007Z,13.10
2019-01-17T03:58:18.956Z,13.20
2019-01-17T03:59:18.989Z,12.70
2019-01-17T04:00:19.022Z,11.70
2019-01-17T04:01:19.065Z,11.90
2019-01-17T04:02:19.123Z,10.90
2019-01-17T04:03:19.162Z,10.10
2019-01-17T04:04:19.250Z,9.70
2019-01-17T04:05:19.281Z,8.90
2019-01-17T04:06:19.311Z,8.80
2019-01-17T04:07:19.364Z,7.90
2019-01-17T04:08:19.392Z,7.10
2019-01-17T04:09:19.457Z,7.50
2019-01-17T04:10:19.516Z,7.10
2019-01-17T04:11:19.552Z,6.40
2019-01-17T04:12:19.577Z,6.60
2019-01-17T04:13:19.738Z,6.40
2019-01-17T04:14:19.674Z,5.80
2019-01-17T04:15:19.738Z,5.80
2019-01-17T04:16:19.797Z,6.30
2019-01-17T04:17:19.830Z,6.20
2019-01-17T04:18:19.899Z,6.20
2019-01-17T04:19:19.903Z,6.10
2019-01-17T04:20:19.977Z,6.00
2019-01-17T04:21:20.057Z,5.50
2019-01-17T04:22:20.041Z,5.30
2019-01-17T04:23:20.096Z,5.20
2019-01-17T04:24:20.130Z,5.50
2019-01-17T04:25:20.174Z,5.40
2019-01-17T04:26:20.239Z,5.30
2019-01-17T04:27:20.283Z,5.50
2019-01-17T04:28:20.313Z,5.30
2019-01-17T04:29:20.411Z,5.80
2019-01-17T04:30:20.415Z,5.30
2019-01-17T04:31:20.466Z,5.50
2019-01-17T04:32:20.522Z,5.40
2019-01-17T04:33:20.581Z,5.40
2019-01-17T04:34:20.605Z,5.70
2019-01-17T04:35:20.635Z,5.50
2019-01-17T04:36:20.689Z,5.30
2019-01-17T04:37:20.738Z,5.30
2019-01-17T04:38:20.785Z,5.00
2019-01-17T04:39:20.838Z,4.00
2019-01-17T04:40:20.858Z,4.30
2019-01-17T04:41:20.928Z,3.70
2019-01-17T04:42:20.970Z,3.50
2019-01-17T04:43:21.042Z,3.30
2019-01-17T04:44:21.114Z,3.40
2019-01-17T04:45:21.084Z,3.40
2019-01-17T04:46:21.158Z,3.40
2019-01-17T04:47:21.219Z,3.30
2019-01-17T04:48:21.251Z,3.30
2019-01-17T04:49:21.322Z,3.40
2019-01-17T04:50:21.347Z,3.00
2019-01-17T04:51:21.394Z,3.00
2019-01-17T04:52:21.432Z,3.00
2019-01-17T04:53:21.481Z,3.00
2019-01-17T04:54:21.518Z,3.10
2019-01-17T04:55:21.582Z,2.90
2019-01-17T04:56:21.612Z,2.80
2019-01-17T04:57:21.648Z,2.90
2019-01-17T04:58:21.726Z,2.80
2019-01-17T04:59:21.745Z,2.80
2019-01-17T05:00:21.808Z,2.70
2019-01-17T05:01:21.832Z,2.70
2019-01-17T05:02:21.881Z,2.80
2019-01-17T05:03:21.950Z,2.80
2019-01-17T05:04:21.989Z,2.60
2019-01-17T05:05:22.139Z,2.40
2019-01-17T05:06:22.065Z,2.40
2019-01-17T05:07:22.123Z,2.40
2019-01-17T05:08:22.180Z,2.50
2019-01-17T05:09:22.219Z,2.30
2019-01-17T05:10:22.265Z,2.50
2019-01-17T05:11:22.312Z,2.70
2019-01-17T05:12:22.357Z,2.50
2019-01-17T05:13:22.427Z,2.50
2019-01-17T05:14:22.446Z,2.70
2019-01-17T05:15:22.489Z,2.70
2019-01-17T05:16:22.528Z,2.30
2019-01-17T05:17:22.582Z,2.30
2019-01-17T05:18:22.639Z,2.40
2019-01-17T05:19:22.672Z,2.70
2019-01-17T05:20:22.705Z,2.30
2019-01-17T05:21:22.756Z,2.50
2019-01-17T05:22:22.839Z,2.50
2019-01-17T05:23:22.846Z,2.40
2019-01-17T05:24:22.898Z,2.50
2019-01-17T05:25:22.963Z,2.60
2019-01-17T05:26:22.975Z,2.60
2019-01-17T05:27:23.119Z,2.30
2019-01-17T05:28:23.187Z,2.70
2019-01-17T05:29:23.149Z,2.30
2019-01-17T05:30:23.175Z,2.50
2019-01-17T05:31:23.237Z,2.30
2019-01-17T05:32:23.290Z,2.30
2019-01-17T05:33:23.338Z,2.50
2019-01-17T05:34:23.386Z,2.50
2019-01-17T05:35:23.438Z,2.50
2019-01-17T05:36:23.441Z,2.50
2019-01-17T05:37:23.507Z,2.70
2019-01-17T05:38:23.552Z,2.90
2019-01-17T05:39:23.638Z,2.40
2019-01-17T05:40:23.639Z,2.40
2019-01-17T05:41:23.717Z,2.60
2019-01-17T05:42:23.744Z,2.70
2019-01-17T05:43:23.796Z,2.50
2019-01-17T05:44:23.813Z,2.60
2019-01-17T05:45:23.874Z,2.60
2019-01-17T05:46:23.959Z,2.80
2019-01-17T05:47:23.986Z,2.70
2019-01-17T05:48:24.009Z,2.70
2019-01-17T05:49:24.232Z,2.60
2019-01-17T05:50:24.115Z,2.60
2019-01-17T05:51:24.149Z,2.70
2019-01-17T05:52:24.208Z,2.80
2019-01-17T05:53:24.249Z,2.70
2019-01-17T05:54:24.290Z,2.50
2019-01-17T05:55:24.342Z,2.50
2019-01-17T05:56:24.401Z,2.80
2019-01-17T05:57:24.445Z,2.60
2019-01-17T05:58:24.494Z,2.80
2019-01-17T05:59:24.543Z,2.70
2019-01-17T06:00:24.560Z,2.60
2019-01-17T06:01:24.635Z,2.60
2019-01-17T06:02:24.668Z,2.50
2019-01-17T06:03:24.717Z,2.60
2019-01-17T06:04:24.744Z,2.50
2019-01-17T06:05:24.800Z,2.70
2019-01-17T06:06:24.865Z,2.80
2019-01-17T06:07:24.928Z,2.70
2019-01-17T06:08:24.947Z,2.70
2019-01-17T06:09:25.002Z,2.50
2019-01-17T06:10:25.075Z,2.80
2019-01-17T06:11:25.243Z,3.00
2019-01-17T06:12:25.132Z,2.70
2019-01-17T06:13:25.189Z,2.80
2019-01-17T06:14:25.214Z,2.60
2019-01-17T06:15:25.296Z,2.40
2019-01-17T06:16:25.332Z,2.50
2019-01-17T06:17:25.360Z,2.30
2019-01-17T06:18:25.411Z,2.50
2019-01-17T06:19:25.476Z,2.40
2019-01-17T06:20:25.523Z,2.60
2019-01-17T06:21:25.574Z,2.50
2019-01-17T06:22:25.614Z,2.50
2019-01-17T06:23:25.799Z,2.40
2019-01-17T06:24:25.690Z,2.40
2019-01-17T06:25:28.160Z,2.60
2019-01-17T06:26:25.792Z,2.60
2019-01-17T06:27:25.822Z,2.50
2019-01-17T06:28:25.879Z,2.60
2019-01-17T06:29:25.928Z,2.50
2019-01-17T06:30:25.980Z,2.60
2019-01-17T06:31:26.007Z,2.50
2019-01-17T06:32:26.074Z,2.50
2019-01-17T06:33:26.128Z,2.50
2019-01-17T06:34:26.195Z,2.50
2019-01-17T06:35:26.318Z,2.40
2019-01-17T06:36:26.260Z,2.60
2019-01-17T06:37:26.288Z,2.70
2019-01-17T06:38:26.352Z,2.60
2019-01-17T06:39:26.387Z,2.50
2019-01-17T06:40:26.460Z,2.50
2019-01-17T06:41:26.502Z,2.70
2019-01-17T06:42:26.536Z,2.60
2019-01-17T06:43:26.580Z,2.80
2019-01-17T06:44:26.612Z,2.60
2019-01-17T06:45:26.685Z,2.80
2019-01-17T06:46:26.727Z,2.60
2019-01-17T06:47:26.994Z,2.70
2019-01-17T06:48:26.813Z,2.70
2019-01-17T06:49:26.872Z,2.60
2019-01-17T06:50:26.925Z,2.80
2019-01-17T06:51:26.957Z,2.80
2019-01-17T06:52:27.012Z,2.70
2019-01-17T06:53:27.115Z,2.70
2019-01-17T06:54:27.107Z,2.80
2019-01-17T06:55:27.143Z,3.00
2019-01-17T06:56:27.183Z,2.70
2019-01-17T06:57:27.232Z,2.80
2019-01-17T06:58:27.440Z,2.90
2019-01-17T06:59:27.342Z,2.80
2019-01-17T07:00:27.389Z,2.90
2019-01-17T07:01:27.420Z,2.90
2019-01-17T07:02:27.492Z,2.90
2019-01-17T07:03:27.538Z,2.80
2019-01-17T07:04:27.566Z,3.00
2019-01-17T07:05:27.629Z,3.00
2019-01-17T07:06:27.673Z,2.90
2019-01-17T07:07:27.719Z,3.30
2019-01-17T07:08:27.745Z,3.20
2019-01-17T07:09:27.811Z,3.20
2019-01-17T07:10:27.867Z,3.30
2019-01-17T07:11:27.920Z,3.20
2019-01-17T07:12:27.947Z,3.30
2019-01-17T07:13:28.013Z,3.50
2019-01-17T07:14:28.032Z,3.20
2019-01-17T07:15:28.073Z,3.10
2019-01-17T07:16:28.162Z,3.30
2019-01-17T07:17:28.198Z,3.30
2019-01-17T07:18:28.233Z,3.20
2019-01-17T07:19:28.281Z,3.30
2019-01-17T07:20:28.403Z,3.20
2019-01-17T07:21:28.375Z,3.40
2019-01-17T07:22:28.433Z,3.50
2019-01-17T07:23:28.458Z,3.40
2019-01-17T07:24:28.520Z,3.70
2019-01-17T07:25:28.557Z,3.50
2019-01-17T07:26:28.617Z,3.50
2019-01-17T07:27:28.710Z,3.60
2019-01-17T07:28:28.694Z,3.50
2019-01-17T07:29:28.750Z,3.60
2019-01-17T07:30:28.783Z,3.70
2019-01-17T07:31:28.845Z,3.90
2019-01-17T07:32:28.996Z,3.60
2019-01-17T07:33:28.948Z,3.90
2019-01-17T07:34:29.000Z,3.60
2019-01-17T07:35:29.031Z,3.60
2019-01-17T07:36:29.078Z,3.70
2019-01-17T07:37:29.149Z,3.60
2019-01-17T07:38:29.175Z,3.90
2019-01-17T07:39:29.238Z,3.50
2019-01-17T07:40:29.274Z,3.80
2019-01-17T07:41:29.322Z,3.70
2019-01-17T07:42:29.355Z,3.60
2019-01-17T07:43:29.397Z,3.60
2019-01-17T07:44:29.465Z,3.60
2019-01-17T07:45:29.493Z,3.70
2019-01-17T07:46:29.550Z,3.60
2019-01-17T07:47:29.582Z,3.50
2019-01-17T07:48:29.672Z,3.50
2019-01-17T07:49:29.736Z,3.70
2019-01-17T07:50:29.750Z,3.50
2019-01-17T07:51:29.801Z,3.60
2019-01-17T07:52:30.402Z,3.60
2019-01-17T07:53:29.892Z,3.40
2019-01-17T07:54:30.033Z,3.80
2019-01-17T07:55:29.999Z,3.80
2019-01-17T07:56:30.012Z,3.60
2019-01-17T07:57:30.072Z,3.70
2019-01-17T07:58:30.132Z,3.70
2019-01-17T07:59:30.182Z,3.70
2019-01-17T08:00:30.204Z,3.70
2019-01-17T08:01:30.277Z,3.80
2019-01-17T08:02:30.315Z,3.80
2019-01-17T08:03:30.353Z,3.70
2019-01-17T08:04:30.418Z,3.80
2019-01-17T08:05:30.458Z,3.50
2019-01-17T08:06:30.601Z,3.70
2019-01-17T08:07:30.530Z,3.70
2019-01-17T08:08:30.601Z,3.60
2019-01-17T08:09:30.637Z,3.80
2019-01-17T08:10:30.679Z,4.00
2019-01-17T08:11:30.757Z,3.80
2019-01-17T08:12:30.787Z,4.00
2019-01-17T08:13:30.834Z,4.10
2019-01-17T08:14:30.888Z,3.40
2019-01-17T08:15:30.927Z,4.10
2019-01-17T08:16:30.961Z,3.70
2019-01-17T08:17:31.058Z,3.80
2019-01-17T08:18:31.075Z,3.50
2019-01-17T08:19:31.153Z,3.60
2019-01-17T08:20:31.153Z,3.60
2019-01-17T08:21:31.237Z,3.40
2019-01-17T08:22:31.254Z,3.40
2019-01-17T08:23:34.774Z,3.60
2019-01-17T08:24:31.366Z,3.60
2019-01-17T08:25:31.402Z,3.60
2019-01-17T08:26:31.420Z,3.60
2019-01-17T08:27:31.503Z,3.40
2019-01-17T08:28:31.557Z,3.60
2019-01-17T08:29:31.586Z,3.30
2019-01-17T08:30:31.641Z,3.50
2019-01-17T08:31:31.694Z,3.60
2019-01-17T08:32:31.716Z,4.10
2019-01-17T08:33:31.816Z,3.80
2019-01-17T08:34:31.831Z,3.70
2019-01-17T08:35:31.868Z,3.80
2019-01-17T08:36:31.966Z,3.90
2019-01-17T08:37:31.981Z,3.80
2019-01-17T08:38:32.054Z,4.10
2019-01-17T08:39:32.108Z,4.50
2019-01-17T08:40:32.096Z,4.40
2019-01-17T08:41:32.141Z,4.10
2019-01-17T08:42:32.216Z,3.80
2019-01-17T08:43:32.347Z,4.00
2019-01-17T08:44:32.325Z,4.00
2019-01-17T08:45:32.346Z,4.10
2019-01-17T08:46:32.382Z,4.20
2019-01-17T08:47:32.428Z,4.50
2019-01-17T08:48:32.475Z,4.00
2019-01-17T08:49:32.539Z,3.80
2019-01-17T08:50:32.564Z,3.80
2019-01-17T08:51:32.650Z,3.70
2019-01-17T08:52:32.675Z,3.80
2019-01-17T08:53:32.736Z,3.70
2019-01-17T08:54:32.780Z,3.90
2019-01-17T08:55:32.818Z,3.90
2019-01-17T08:56:32.876Z,3.90
2019-01-17T08:57:32.909Z,3.80
2019-01-17T08:58:32.954Z,3.90
2019-01-17T08:59:33.018Z,3.80
2019-01-17T09:00:33.028Z,3.60
2019-01-17T09:01:33.205Z,3.70
2019-01-17T09:02:33.145Z,4.00
2019-01-17T09:03:33.171Z,4.00
2019-01-17T09:04:33.234Z,4.10
2019-01-17T09:05:33.297Z,4.00
2019-01-17T09:06:33.367Z,3.80
2019-01-17T09:07:33.367Z,3.70
2019-01-17T09:08:33.419Z,3.50
2019-01-17T09:09:33.485Z,3.80
2019-01-17T09:10:33.512Z,3.90
2019-01-17T09:11:33.564Z,3.50
2019-01-17T09:12:33.610Z,4.00
2019-01-17T09:13:33.657Z,4.00
2019-01-17T09:14:33.757Z,3.90
2019-01-17T09:15:33.790Z,3.80
2019-01-17T09:16:33.794Z,3.70
2019-01-17T09:17:33.835Z,3.80
2019-01-17T09:18:33.945Z,3.40
2019-01-17T09:19:33.960Z,3.30
2019-01-17T09:20:34.138Z,3.10
2019-01-17T09:21:34.047Z,3.10
2019-01-17T09:22:34.117Z,2.90
2019-01-17T09:23:34.137Z,3.00
2019-01-17T09:24:34.184Z,2.80
2019-01-17T09:25:34.234Z,3.10
2019-01-17T09:26:34.268Z,3.10
2019-01-17T09:27:34.342Z,3.30
2019-01-17T09:28:34.394Z,3.30
2019-01-17T09:29:34.465Z,3.20
2019-01-17T09:30:34.469Z,3.30
2019-01-17T09:31:34.530Z,3.20
2019-01-17T09:32:34.623Z,3.60
2019-01-17T09:33:34.626Z,3.10
2019-01-17T09:34:34.671Z,3.10
2019-01-17T09:35:34.715Z,3.10
2019-01-17T09:36:34.761Z,3.20
2019-01-17T09:37:34.806Z,3.10
2019-01-17T09:38:34.848Z,3.10
2019-01-17T09:39:34.959Z,3.50
2019-01-17T09:40:34.971Z,3.50
2019-01-17T09:41:34.998Z,3.40
2019-01-17T09:42:35.029Z,3.40
2019-01-17T09:43:35.111Z,3.40
2019-01-17T09:44:35.168Z,3.40
2019-01-17T09:45:35.242Z,3.30
2019-01-17T09:46:35.376Z,3.40
2019-01-17T09:47:35.290Z,3.60
2019-01-17T09:48:35.325Z,3.40
2019-01-17T09:49:35.375Z,3.40
2019-01-17T09:50:35.454Z,3.50
2019-01-17T09:51:35.494Z,3.50
2019-01-17T09:52:35.575Z,3.30
2019-01-17T09:53:35.627Z,3.70
2019-01-17T09:54:35.702Z,3.90
2019-01-17T09:55:35.669Z,3.40
2019-01-17T09:56:35.739Z,3.50
2019-01-17T09:57:35.777Z,3.30
2019-01-17T09:58:35.860Z,3.30
2019-01-17T09:59:35.854Z,3.40
2019-01-17T10:00:35.934Z,3.10
2019-01-17T10:01:35.978Z,3.50
2019-01-17T10:02:36.012Z,3.10
2019-01-17T10:03:36.115Z,3.60
2019-01-17T10:04:36.135Z,3.00
2019-01-17T10:05:36.183Z,2.90
2019-01-17T10:06:36.282Z,3.10
2019-01-17T10:07:36.282Z,3.40
2019-01-17T10:08:36.349Z,3.60
2019-01-17T10:09:36.387Z,3.60
2019-01-17T10:10:36.486Z,3.20
2019-01-17T10:11:36.489Z,3.20
2019-01-17T10:12:36.552Z,3.30
2019-01-17T10:13:36.599Z,3.00
2019-01-17T10:14:36.660Z,3.20
2019-01-17T10:15:36.717Z,3.20
2019-01-17T10:16:36.757Z,3.20
2019-01-17T10:17:36.831Z,3.50
2019-01-17T10:18:36.926Z,3.50
2019-01-17T10:19:36.912Z,3.40
2019-01-17T10:20:36.982Z,3.50
2019-01-17T10:21:37.075Z,3.50
2019-01-17T10:22:37.072Z,3.40
2019-01-17T10:23:37.135Z,3.60
2019-01-17T10:24:37.200Z,3.60
2019-01-17T10:25:37.245Z,3.80
2019-01-17T10:26:37.315Z,3.60
2019-01-17T10:27:37.381Z,3.60
2019-01-17T10:28:37.439Z,3.70
2019-01-17T10:29:37.448Z,3.80
2019-01-17T10:30:37.508Z,3.60
2019-01-17T10:31:37.591Z,3.60
2019-01-17T10:32:37.599Z,3.60
2019-01-17T10:33:37.659Z,3.20
2019-01-17T10:34:37.724Z,3.50
2019-01-17T10:35:37.770Z,3.70
2019-01-17T10:36:37.807Z,3.50
2019-01-17T10:37:37.932Z,3.60
2019-01-17T10:38:37.928Z,3.30
2019-01-17T10:39:38.029Z,3.00
2019-01-17T10:40:38.035Z,3.30
2019-01-17T10:41:38.103Z,3.00
2019-01-17T10:42:38.134Z,3.10
2019-01-17T10:43:38.200Z,3.00
2019-01-17T10:44:38.253Z,2.60
2019-01-17T10:45:39.475Z,2.90
2019-01-17T10:46:38.359Z,2.80
2019-01-17T10:47:38.430Z,2.60
2019-01-17T10:48:38.461Z,2.70
2019-01-17T10:49:38.541Z,2.50
2019-01-17T10:50:38.564Z,2.70
2019-01-17T10:51:38.613Z,2.80
2019-01-17T10:52:38.666Z,2.50
2019-01-17T10:53:38.746Z,2.80
2019-01-17T10:54:38.771Z,2.70
2019-01-17T10:56:41.533Z,2.50
2019-01-17T10:57:38.940Z,2.60
2019-01-17T10:58:39.013Z,2.40
2019-01-17T10:59:39.089Z,2.90
2019-01-17T11:00:39.141Z,2.70
2019-01-17T11:01:39.201Z,2.90
2019-01-17T11:02:39.222Z,3.20
2019-01-17T11:03:39.251Z,2.90
2019-01-17T11:04:39.329Z,2.80
2019-01-17T11:05:39.378Z,2.90
2019-01-17T11:06:39.431Z,3.50
2019-01-17T11:07:39.524Z,3.30
2019-01-17T11:08:39.535Z,3.20
2019-01-17T11:09:39.575Z,3.20
2019-01-17T11:10:39.626Z,3.40
2019-01-17T11:11:39.682Z,3.10
2019-01-17T11:12:39.898Z,2.90
2019-01-17T11:13:39.820Z,2.90
2019-01-17T11:14:39.853Z,2.70
2019-01-17T11:15:39.909Z,3.30
2019-01-17T11:16:39.967Z,3.00
2019-01-17T11:17:40.031Z,2.90
2019-01-17T11:18:40.158Z,2.90
2019-01-17T11:19:40.117Z,3.00
2019-01-17T11:20:40.181Z,2.90
2019-01-17T11:21:40.212Z,2.80
2019-01-17T11:22:40.296Z,3.10
2019-01-17T11:23:40.353Z,2.90
2019-01-17T11:24:40.416Z,2.80
2019-01-17T11:25:40.470Z,2.70
2019-01-17T11:26:40.507Z,3.00
2019-01-17T11:27:40.552Z,2.80
2019-01-17T11:28:40.619Z,2.80
2019-01-17T11:29:40.699Z,2.70
2019-01-17T11:30:40.754Z,2.80
2019-01-17T11:31:40.804Z,2.90
2019-01-17T11:32:40.834Z,2.60
2019-01-17T11:33:40.940Z,2.80
2019-01-17T11:34:40.969Z,2.90
2019-01-17T11:35:41.059Z,2.90
2019-01-17T11:36:41.086Z,3.00
2019-01-17T11:37:41.140Z,3.00
2019-01-17T11:38:41.204Z,3.00
2019-01-17T11:39:41.259Z,3.10
2019-01-17T11:40:41.307Z,3.00
2019-01-17T11:41:41.366Z,3.00
2019-01-17T11:42:41.530Z,3.50
2019-01-17T11:43:41.471Z,3.60
2019-01-17T11:44:41.494Z,3.40
2019-01-17T11:45:41.575Z,3.10
2019-01-17T11:46:41.642Z,3.20
2019-01-17T11:47:41.675Z,3.20
2019-01-17T11:48:41.853Z,3.20
2019-01-17T11:49:41.811Z,3.20
2019-01-17T11:50:41.885Z,3.40
2019-01-17T11:51:41.943Z,3.40
2019-01-17T11:52:41.986Z,3.50
2019-01-17T11:53:42.025Z,3.60
2019-01-17T11:54:42.097Z,3.20
2019-01-17T11:55:42.140Z,3.50
2019-01-17T11:56:42.202Z,3.30
2019-01-17T11:57:42.294Z,3.40
2019-01-17T11:58:42.331Z,3.30
2019-01-17T11:59:42.374Z,3.30
2019-01-17T12:00:42.542Z,3.20
2019-01-17T12:01:42.503Z,3.20
2019-01-17T12:02:42.535Z,3.40
2019-01-17T12:03:42.630Z,3.40
2019-01-17T12:04:42.664Z,3.20
2019-01-17T12:05:42.710Z,3.40
2019-01-17T12:06:42.779Z,4.00
2019-01-17T12:07:42.848Z,4.10
2019-01-17T12:08:42.907Z,3.70
2019-01-17T12:09:42.961Z,3.80
2019-01-17T12:10:43.012Z,3.80
2019-01-17T12:11:43.072Z,4.10
2019-01-17T12:12:43.137Z,4.10
2019-01-17T12:13:43.190Z,4.20
2019-01-17T12:14:43.254Z,4.00
2019-01-17T12:15:43.315Z,4.50
2019-01-17T12:16:43.351Z,4.70
2019-01-17T12:17:43.436Z,4.50
2019-01-17T12:18:43.505Z,4.50
2019-01-17T12:19:43.549Z,4.70
2019-01-17T12:20:43.597Z,4.90
2019-01-17T12:21:43.662Z,4.90
2019-01-17T12:22:43.743Z,4.70
2019-01-17T12:23:43.762Z,4.50
2019-01-17T12:24:43.839Z,4.70
2019-01-17T12:25:43.898Z,4.60
2019-01-17T12:26:47.440Z,4.60
2019-01-17T12:27:44.002Z,4.80
2019-01-17T12:28:44.065Z,4.50
2019-01-17T12:29:44.142Z,4.40
2019-01-17T12:30:44.236Z,4.40
2019-01-17T12:31:44.252Z,4.80
2019-01-17T12:32:44.302Z,4.50
2019-01-17T12:33:44.336Z,4.20
2019-01-17T12:34:44.415Z,4.40
2019-01-17T12:35:44.478Z,4.80
2019-01-17T12:36:44.540Z,4.60
2019-01-17T12:37:44.582Z,4.90
2019-01-17T12:38:44.660Z,5.00
2019-01-17T12:39:44.715Z,5.00
2019-01-17T12:40:44.755Z,4.90
2019-01-17T12:41:44.814Z,4.80
2019-01-17T12:42:44.979Z,4.90
2019-01-17T12:43:44.954Z,4.50
2019-01-17T12:44:44.987Z,4.70
2019-01-17T12:45:45.090Z,4.80
2019-01-17T12:46:45.171Z,4.70
2019-01-17T12:47:45.158Z,6.00
2019-01-17T12:48:45.209Z,4.70
2019-01-17T12:49:45.300Z,5.40
2019-01-17T12:50:45.335Z,4.80
2019-01-17T12:51:45.415Z,5.00
2019-01-17T12:52:45.466Z,5.20
2019-01-17T12:53:45.522Z,4.60
2019-01-17T12:54:45.572Z,4.30
2019-01-17T12:55:45.736Z,4.70
2019-01-17T12:56:45.691Z,4.80
2019-01-17T12:57:45.741Z,5.00
2019-01-17T12:58:45.816Z,5.00
2019-01-17T12:59:45.861Z,4.80
2019-01-17T13:00:45.937Z,4.50
2019-01-17T13:01:46.031Z,4.80
2019-01-17T13:02:46.030Z,5.20
2019-01-17T13:03:46.097Z,5.00
2019-01-17T13:04:46.191Z,4.70
2019-01-17T13:05:46.218Z,4.80
2019-01-17T13:06:46.269Z,4.60
2019-01-17T13:07:46.324Z,5.10
2019-01-17T13:08:46.367Z,5.20
2019-01-17T13:09:46.434Z,4.90
2019-01-17T13:10:46.536Z,4.60
2019-01-17T13:11:46.566Z,5.00
2019-01-17T13:12:46.630Z,4.80
2019-01-17T13:13:46.699Z,4.90
2019-01-17T13:14:46.774Z,4.70
2019-01-17T13:15:46.799Z,4.70
2019-01-17T13:16:46.899Z,4.60
2019-01-17T13:17:46.908Z,4.60
2019-01-17T13:18:46.961Z,4.80